Time;durP1;ratioP1;P1;durP2;ratioP2;P2;SDS_P1;SDS_P2;PMS_P1;PMS_P2;Temp;Humidity;BMP_temperature;BMP_pressure;BME280_temperature;BME280_humidity;BME280_pressure;Samples;Min_cycle;Max_cycle;Signal;HPM_P1;HPM_P2
2023/10/21 00:03:48;;;;;;;1.10;1.00;;;4.40;87.00;;;;;;10314082;28;20207;-78
2023/10/21 00:09:10;;;;;;;2.50;1.20;;;4.40;58.20;;;;;;10313794;28;20231;-76
2023/10/21 00:14:31;;;;;;;0.80;0.80;;;4.40;99.90;;;;;;10313697;28;20203;-77
2023/10/21 00:19:52;;;;;;;1.20;1.07;;;4.40;65.30;;;;;;10313330;28;20374;-76
2023/10/21 00:25:13;;;;;;;1.07;0.97;;;4.40;93.90;;;;;;10313253;28;20207;-76
2023/10/21 00:30:35;;;;;;;1.27;0.60;;;4.50;79.40;;;;;;10313512;28;20476;-77
2023/10/21 00:35:56;;;;;;;1.10;1.00;;;4.50;28.30;;;;;;10299527;28;20252;-76
2023/10/21 00:41:17;;;;;;;1.23;1.00;;;4.50;15.80;;;;;;10312875;28;20246;-77
2023/10/21 00:46:43;;;;;;;1.90;1.07;;;4.50;41.00;;;;;;10313363;28;20193;-77
2023/10/21 00:52:05;;;;;;;1.10;0.90;;;4.50;99.90;;;;;;10312811;28;20223;-77
2023/10/21 00:57:27;;;;;;;1.17;0.80;;;4.50;52.20;;;;;;10312816;28;20215;-78
2023/10/21 01:02:48;;;;;;;1.40;1.10;;;4.60;8.70;;;;;;10312695;28;20197;-77
2023/10/21 01:08:09;;;;;;;2.43;1.13;;;4.60;69.10;;;;;;10316654;28;20201;-77
2023/10/21 01:13:31;;;;;;;1.23;1.00;;;4.60;21.80;;;;;;10319411;28;20202;-78
2023/10/21 01:18:52;;;;;;;1.07;0.90;;;4.60;60.30;;;;;;10307575;28;20551;-77
2023/10/21 01:24:13;;;;;;;1.00;0.90;;;4.50;99.90;;;;;;10303649;28;20487;-77
2023/10/21 01:29:34;;;;;;;1.60;0.90;;;4.60;99.90;;;;;;10319633;28;20234;-77
2023/10/21 01:34:56;;;;;;;1.30;1.20;;;4.60;99.90;;;;;;10319372;28;20209;-77
2023/10/21 01:40:17;;;;;;;1.27;1.10;;;4.60;99.90;;;;;;10318735;28;20237;-77
2023/10/21 01:45:38;;;;;;;1.23;1.13;;;4.60;99.90;;;;;;10319295;28;20223;-77
2023/10/21 01:51:04;;;;;;;1.10;1.00;;;4.60;99.90;;;;;;10318224;28;20200;-77
2023/10/21 01:56:26;;;;;;;1.27;1.17;;;4.60;99.90;;;;;;10318601;28;20205;-77
2023/10/21 02:01:47;;;;;;;1.27;1.17;;;4.60;99.90;;;;;;10318499;28;20240;-77
2023/10/21 02:07:09;;;;;;;3.77;1.30;;;4.60;99.90;;;;;;10317697;28;20271;-77
2023/10/21 02:12:31;;;;;;;1.77;1.10;;;4.70;99.90;;;;;;10271257;28;20226;-77
2023/10/21 02:17:52;;;;;;;1.53;1.23;;;4.70;99.90;;;;;;10305927;28;20492;-78
2023/10/21 02:23:13;;;;;;;1.50;1.40;;;4.70;99.90;;;;;;10318566;28;20201;-76
2023/10/21 02:28:35;;;;;;;1.20;1.10;;;4.70;99.90;;;;;;10318026;28;20201;-77
2023/10/21 02:33:57;;;;;;;1.83;1.30;;;4.80;99.90;;;;;;10303970;28;20267;-76
2023/10/21 02:39:19;;;;;;;1.37;1.20;;;4.80;99.90;;;;;;10276913;28;20262;-76
2023/10/21 02:44:40;;;;;;;1.37;1.27;;;4.80;99.90;;;;;;10277242;29;20198;-77
2023/10/21 02:50:05;;;;;;;1.40;1.30;;;4.80;99.90;;;;;;10291910;28;20238;-77
2023/10/21 02:55:26;;;;;;;1.53;1.43;;;4.70;99.90;;;;;;10303067;28;20205;-77
2023/10/21 03:00:48;;;;;;;2.13;1.30;;;4.80;99.90;;;;;;10303033;28;20228;-78
2023/10/21 03:06:10;;;;;;;2.13;1.50;;;4.80;99.90;;;;;;10301896;28;20237;-77
2023/10/21 03:11:32;;;;;;;1.77;1.53;;;4.90;99.90;;;;;;10302278;28;20289;-77
2023/10/21 03:16:54;;;;;;;3.00;1.70;;;4.90;99.90;;;;;;10314898;28;20498;-78
2023/10/21 03:22:15;;;;;;;1.63;1.40;;;4.90;99.90;;;;;;10277999;28;20304;-76
2023/10/21 03:27:37;;;;;;;1.70;1.60;;;4.90;99.90;;;;;;10276471;28;20195;-77
2023/10/21 03:32:58;;;;;;;2.37;1.70;;;4.90;99.90;;;;;;10279258;28;20200;-78
2023/10/21 03:38:20;;;;;;;2.60;2.10;;;4.90;99.90;;;;;;10314848;28;20241;-77
2023/10/21 03:43:41;;;;;;;2.63;1.63;;;4.90;99.90;;;;;;10315110;28;20198;-77
2023/10/21 03:49:02;;;;;;;2.70;1.70;;;5.00;99.90;;;;;;10287234;28;20203;-78
2023/10/21 03:54:24;;;;;;;1.73;1.63;;;5.00;99.90;;;;;;10287535;28;20197;-78
2023/10/21 03:59:45;;;;;;;1.87;1.67;;;5.00;99.90;;;;;;10314179;28;20245;-78
2023/10/21 04:05:08;;;;;;;2.10;1.80;;;5.00;99.90;;;;;;10300390;28;20197;-77
2023/10/21 04:10:29;;;;;;;1.70;1.57;;;5.00;99.90;;;;;;10315101;28;20283;-77
2023/10/21 04:15:50;;;;;;;2.07;1.70;;;5.10;99.90;;;;;;10314276;28;20252;-76
2023/10/21 04:21:11;;;;;;;2.43;1.90;;;5.00;99.90;;;;;;10313191;28;20231;-76
2023/10/21 04:26:33;;;;;;;2.50;1.90;;;5.00;99.90;;;;;;10313859;28;20388;-77
2023/10/21 04:31:54;;;;;;;3.00;2.03;;;5.10;99.90;;;;;;10314299;28;20199;-77
2023/10/21 04:37:15;;;;;;;2.03;1.83;;;5.20;99.90;;;;;;10313321;28;20299;-77
2023/10/21 04:42:37;;;;;;;2.83;1.90;;;5.20;99.90;;;;;;10317912;28;20218;-78
2023/10/21 04:47:58;;;;;;;2.00;1.80;;;5.20;99.90;;;;;;10322207;28;20197;-78
2023/10/21 04:53:19;;;;;;;2.60;1.57;;;5.20;99.90;;;;;;10322309;28;20201;-76
2023/10/21 04:58:39;;;;;;;1.60;1.40;;;5.20;99.90;;;;;;10321951;28;20233;-77
2023/10/21 05:04:01;;;;;;;1.50;1.40;;;5.30;99.90;;;;;;10320523;28;20280;-77
2023/10/21 05:09:22;;;;;;;1.53;1.20;;;5.30;99.90;;;;;;10306828;28;20197;-77
2023/10/21 05:14:43;;;;;;;5.53;3.20;;;5.40;99.90;;;;;;10319235;28;20204;-78
2023/10/21 05:20:05;;;;;;;2.60;1.13;;;5.30;99.90;;;;;;10308619;28;20459;-77
2023/10/21 05:25:26;;;;;;;1.67;1.33;;;5.30;99.90;;;;;;10319984;28;20202;-76
2023/10/21 05:30:47;;;;;;;2.53;1.50;;;5.40;99.90;;;;;;10291486;28;20213;-76
2023/10/21 05:36:09;;;;;;;4.13;2.50;;;5.40;99.90;;;;;;10293200;28;20208;-76
2023/10/21 05:41:30;;;;;;;4.77;3.80;;;5.40;99.90;;;;;;10277024;29;20218;-77
2023/10/21 05:46:51;;;;;;;3.57;3.20;;;5.40;99.90;;;;;;10314689;28;20232;-78
2023/10/21 05:52:14;;;;;;;2.30;1.97;;;5.50;99.90;;;;;;10316240;28;20205;-78
2023/10/21 05:57:36;;;;;;;7.23;5.70;;;5.50;99.90;;;;;;10315922;28;20497;-78
2023/10/21 06:02:57;;;;;;;15.17;11.00;;;5.60;99.90;;;;;;10316600;28;20264;-78
2023/10/21 06:08:18;;;;;;;10.20;5.90;;;5.60;99.90;;;;;;10317235;28;20250;-77
2023/10/21 06:13:39;;;;;;;5.27;3.67;;;5.50;99.90;;;;;;10315537;28;20207;-77
2023/10/21 06:19:00;;;;;;;6.63;3.97;;;5.60;99.90;;;;;;10300827;28;20225;-78
2023/10/21 06:24:21;;;;;;;6.63;3.73;;;5.60;99.90;;;;;;10280880;28;20190;-77
2023/10/21 06:29:43;;;;;;;6.33;3.07;;;5.70;99.90;;;;;;10315250;28;20280;-77
2023/10/21 06:35:05;;;;;;;6.40;3.73;;;5.60;99.90;;;;;;10316277;28;20197;-77
2023/10/21 06:40:26;;;;;;;7.03;3.73;;;5.70;99.90;;;;;;10269521;28;1391666;-77
2023/10/21 06:45:55;;;;;;;7.97;3.83;;;5.80;99.90;;;;;;10316815;28;20203;-77
2023/10/21 06:51:17;;;;;;;6.47;4.27;;;5.80;99.90;;;;;;10316613;28;20268;-76
2023/10/21 06:56:38;;;;;;;6.63;4.27;;;5.80;99.90;;;;;;10317354;28;20197;-77
2023/10/21 07:01:59;;;;;;;7.23;4.03;;;5.80;99.90;;;;;;10317230;28;20566;-78
2023/10/21 07:07:20;;;;;;;7.07;4.00;;;5.80;99.90;;;;;;10315306;28;20206;-78
2023/10/21 07:12:42;;;;;;;9.37;5.70;;;5.80;99.90;;;;;;10316596;28;20222;-77
2023/10/21 07:18:03;;;;;;;8.23;5.30;;;5.90;99.90;;;;;;10309863;28;20199;-77
2023/10/21 07:23:24;;;;;;;11.87;6.70;;;5.90;99.90;;;;;;10279886;28;20222;-78
2023/10/21 07:28:45;;;;;;;17.07;5.77;;;5.90;99.90;;;;;;10316200;28;20423;-77
2023/10/21 07:34:07;;;;;;;11.57;4.50;;;5.90;99.90;;;;;;10316109;28;20193;-77
2023/10/21 07:39:27;;;;;;;7.67;3.80;;;5.90;99.90;;;;;;10315230;28;20240;-77
2023/10/21 07:44:49;;;;;;;8.30;4.73;;;5.90;99.90;;;;;;10287715;28;20247;-76
2023/10/21 07:50:10;;;;;;;7.97;5.90;;;6.00;99.90;;;;;;10315550;28;20204;-78
2023/10/21 07:55:31;;;;;;;8.67;5.83;;;6.00;99.90;;;;;;10313844;28;20186;-77
2023/10/21 08:00:53;;;;;;;7.70;4.33;;;6.00;99.90;;;;;;10315195;28;20234;-77
2023/10/21 08:06:15;;;;;;;9.73;4.57;;;6.00;99.90;;;;;;10313873;28;20201;-77
2023/10/21 08:11:36;;;;;;;9.67;5.37;;;6.00;99.90;;;;;;10314260;28;20217;-78
2023/10/21 08:17:00;;;;;;;6.17;4.17;;;6.00;99.90;;;;;;10312907;28;20518;-77
2023/10/21 08:22:22;;;;;;;9.67;6.30;;;6.10;99.90;;;;;;10284069;28;20275;-78
2023/10/21 08:27:43;;;;;;;13.10;8.33;;;6.20;99.90;;;;;;10313672;28;20213;-77
2023/10/21 08:33:07;;;;;;;11.80;7.77;;;6.20;99.90;;;;;;10313763;28;20199;-78
2023/10/21 08:38:29;;;;;;;9.07;5.77;;;6.30;99.90;;;;;;10313854;28;20276;-78
2023/10/21 08:43:50;;;;;;;9.40;6.20;;;6.30;99.90;;;;;;10312317;28;20197;-78
2023/10/21 08:49:14;;;;;;;5.43;4.80;;;6.40;99.90;;;;;;10313700;28;20232;-78
2023/10/21 08:54:35;;;;;;;6.57;3.90;;;6.40;99.90;;;;;;10312867;28;20284;-78
2023/10/21 08:59:57;;;;;;;5.07;3.97;;;6.50;99.90;;;;;;10313713;28;20225;-77
2023/10/21 09:05:18;;;;;;;5.67;4.03;;;6.70;99.90;;;;;;10313989;28;20194;-77
2023/10/21 09:10:40;;;;;;;9.83;5.73;;;6.80;99.90;;;;;;10313530;28;20198;-78
2023/10/21 09:16:04;;;;;;;16.77;7.90;;;6.80;99.90;;;;;;10310227;28;20202;-77
2023/10/21 09:21:42;;;;;;;24.87;15.80;;;6.90;99.90;;;;;;10312203;28;20277;-77
2023/10/21 09:27:04;;;;;;;11.37;7.70;;;6.90;99.90;;;;;;10313976;28;20190;-78
2023/10/21 09:32:33;;;;;;;3.87;3.00;;;7.00;99.90;;;;;;10320970;28;20206;-78
2023/10/21 09:37:54;;;;;;;4.90;3.70;;;7.00;99.90;;;;;;10318934;28;20498;-78
2023/10/21 09:43:17;;;;;;;5.33;3.90;;;7.00;99.90;;;;;;10318780;28;20233;-77
2023/10/21 09:48:44;;;;;;;5.20;3.67;;;7.10;99.90;;;;;;10319172;28;20197;-78
2023/10/21 09:54:13;;;;;;;4.90;3.77;;;7.10;99.90;;;;;;10305017;28;20203;-78
2023/10/21 09:59:35;;;;;;;5.80;4.10;;;7.10;99.90;;;;;;10317899;28;20235;-77
2023/10/21 10:04:59;;;;;;;5.97;4.60;;;7.10;99.90;;;;;;10317202;28;20194;-76
2023/10/21 10:10:27;;;;;;;7.33;4.20;;;7.20;99.90;;;;;;10319311;28;20487;-77
2023/10/21 10:15:49;;;;;;;8.03;7.17;;;7.30;99.90;;;;;;10316707;28;20195;-78
2023/10/21 10:21:14;;;;;;;10.73;7.50;;;7.40;99.90;;;;;;10316539;28;20229;-78
2023/10/21 10:26:37;;;;;;;14.27;9.03;;;7.50;99.90;;;;;;10318269;28;20198;-77
2023/10/21 10:32:14;;;;;;;18.50;11.77;;;7.50;99.90;;;;;;10317122;28;20202;-78
2023/10/21 10:37:37;;;;;;;14.83;8.40;;;7.50;99.90;;;;;;10317391;28;20404;-76
2023/10/21 10:42:58;;;;;;;8.77;6.07;;;7.50;99.90;;;;;;10290791;28;20239;-77
2023/10/21 10:48:20;;;;;;;13.60;8.10;;;7.50;99.90;;;;;;10316152;28;20274;-78
2023/10/21 10:54:01;;;;;;;13.97;8.80;;;7.60;99.90;;;;;;10316717;28;20200;-77
2023/10/21 10:59:24;;;;;;;14.03;9.10;;;7.60;99.90;;;;;;10317027;28;20254;-77
2023/10/21 11:04:51;;;;;;;8.87;6.40;;;7.70;99.90;;;;;;10316121;28;20196;-77
2023/10/21 11:10:18;;;;;;;7.57;6.27;;;7.70;99.90;;;;;;10315671;28;20254;-76
2023/10/21 11:15:41;;;;;;;7.73;5.07;;;7.80;99.90;;;;;;10314719;28;20202;-77
2023/10/21 11:21:02;;;;;;;8.80;5.97;;;8.00;99.90;;;;;;10315169;28;20228;-77
2023/10/21 11:26:24;;;;;;;9.03;6.00;;;8.00;99.90;;;;;;10316157;28;20196;-78
2023/10/21 11:31:45;;;;;;;8.57;6.40;;;8.10;99.90;;;;;;10315019;28;20343;-77
2023/10/21 11:37:06;;;;;;;9.60;5.97;;;8.20;99.90;;;;;;10314401;28;20232;-77
2023/10/21 11:42:28;;;;;;;11.83;7.40;;;8.20;99.90;;;;;;10314589;28;20262;-76
2023/10/21 11:47:53;;;;;;;11.67;6.53;;;8.30;99.90;;;;;;10300883;28;20207;-74
2023/10/21 11:53:15;;;;;;;12.17;7.43;;;8.40;99.90;;;;;;10314253;28;20188;-76
2023/10/21 12:26:53;;;;;;;37.70;22.13;;;8.60;99.90;;;;;;10187996;29;20202;-78
2023/10/21 12:32:43;;;;;;;25.13;15.47;;;8.60;99.90;;;;;;10191335;29;20206;-78
2023/10/21 12:43:35;;;;;;;38.00;21.83;;;8.60;99.90;;;;;;10191588;29;20310;-78
2023/10/21 12:48:57;;;;;;;17.27;11.33;;;8.60;99.90;;;;;;10191730;29;20201;-78
2023/10/21 12:54:21;;;;;;;79.13;38.60;;;8.60;99.90;;;;;;10191497;29;20576;-78
2023/10/21 12:59:43;;;;;;;23.63;13.50;;;8.70;99.90;;;;;;10199871;28;20466;-76
2023/10/21 13:05:04;;;;;;;28.87;15.53;;;8.60;99.90;;;;;;10318226;28;20271;-77
2023/10/21 13:10:27;;;;;;;18.60;11.13;;;8.60;99.90;;;;;;10280816;28;20281;-77
2023/10/21 13:15:49;;;;;;;30.47;19.60;;;8.70;99.90;;;;;;10316586;28;20211;-78
2023/10/21 13:21:11;;;;;;;28.30;18.67;;;8.70;99.90;;;;;;10292851;28;20247;-78
2023/10/21 13:26:32;;;;;;;22.23;15.27;;;8.70;99.90;;;;;;10320241;28;20479;-78
2023/10/21 13:31:54;;;;;;;26.17;17.43;;;8.70;99.90;;;;;;10321059;28;20392;-78
2023/10/21 13:37:19;;;;;;;18.73;11.37;;;8.70;99.90;;;;;;10319997;28;20232;-78
2023/10/21 13:42:45;;;;;;;14.00;9.03;;;8.70;99.90;;;;;;10319955;28;20232;-77
2023/10/21 13:48:11;;;;;;;24.00;13.50;;;8.80;99.90;;;;;;10319364;28;20196;-76
2023/10/21 13:53:33;;;;;;;20.20;14.77;;;8.80;99.90;;;;;;10318400;28;20273;-78
2023/10/21 13:58:54;;;;;;;25.77;16.57;;;8.80;99.90;;;;;;10318541;28;20529;-77
2023/10/21 14:04:17;;;;;;;39.53;19.60;;;8.80;99.90;;;;;;10318513;28;20220;-77
2023/10/21 14:09:38;;;;;;;25.33;15.60;;;8.70;99.90;;;;;;10317730;28;20216;-78
2023/10/21 14:15:05;;;;;;;33.70;18.83;;;8.70;99.90;;;;;;10317258;28;20211;-78
2023/10/21 14:20:26;;;;;;;74.23;33.30;;;8.70;99.90;;;;;;10311564;28;20223;-77
2023/10/21 14:25:55;;;;;;;22.93;15.43;;;8.70;99.90;;;;;;10318536;28;20230;-78
2023/10/21 14:31:23;;;;;;;44.70;29.80;;;8.70;99.90;;;;;;10318579;28;20193;-78
2023/10/21 14:36:45;;;;;;;46.77;27.63;;;8.70;99.90;;;;;;10303037;28;20567;-78
2023/10/21 14:42:06;;;;;;;57.30;33.07;;;8.70;99.90;;;;;;10318034;28;20228;-77
2023/10/21 14:47:30;;;;;;;55.97;33.00;;;8.70;99.90;;;;;;10316660;28;20197;-77
2023/10/21 14:52:51;;;;;;;166.20;70.50;;;8.70;99.90;;;;;;10317132;28;20479;-77
2023/10/21 14:58:12;;;;;;;46.73;29.67;;;8.70;99.90;;;;;;10316183;28;20462;-77
2023/10/21 15:03:33;;;;;;;30.03;19.43;;;8.70;99.90;;;;;;10317058;28;20240;-78
2023/10/21 15:08:55;;;;;;;31.43;19.87;;;8.70;99.90;;;;;;10302236;28;20197;-78
2023/10/21 15:14:16;;;;;;;52.37;34.90;;;8.80;99.90;;;;;;10315736;28;20191;-76
2023/10/21 15:19:38;;;;;;;38.97;25.50;;;8.70;99.90;;;;;;10301447;28;20210;-77
2023/10/21 15:25:00;;;;;;;34.70;22.57;;;8.70;99.90;;;;;;10315575;28;20196;-76
2023/10/21 15:30:22;;;;;;;30.00;20.27;;;8.70;99.90;;;;;;10316533;28;20486;-78
2023/10/21 15:35:43;;;;;;;26.50;19.73;;;8.70;99.90;;;;;;10316212;28;20195;-79
2023/10/21 15:41:04;;;;;;;45.90;27.07;;;8.80;99.90;;;;;;10314923;28;20277;-77
2023/10/21 15:46:25;;;;;;;49.40;30.63;;;8.80;99.90;;;;;;10315974;28;20196;-76
2023/10/21 15:51:47;;;;;;;44.53;29.47;;;8.80;99.90;;;;;;10315357;28;20486;-76
2023/10/21 15:57:08;;;;;;;58.77;33.57;;;8.80;99.90;;;;;;10315312;28;20493;-76
2023/10/21 16:02:29;;;;;;;49.23;30.43;;;8.80;99.90;;;;;;10315142;28;20227;-77
2023/10/21 16:07:50;;;;;;;43.90;27.60;;;8.80;99.90;;;;;;10300013;28;20205;-78
2023/10/21 16:13:15;;;;;;;30.90;21.60;;;8.80;99.90;;;;;;10315077;28;20497;-77
2023/10/21 16:18:36;;;;;;;30.40;21.10;;;8.80;99.90;;;;;;10311174;28;20200;-76
2023/10/21 16:23:57;;;;;;;37.47;20.97;;;8.90;99.90;;;;;;10313850;28;20228;-78
2023/10/21 16:29:19;;;;;;;34.97;21.80;;;9.00;99.90;;;;;;10313481;28;20222;-77
2023/10/21 16:34:41;;;;;;;48.13;30.67;;;9.00;99.90;;;;;;10299324;28;20202;-77
2023/10/21 16:40:03;;;;;;;53.97;33.50;;;9.00;99.90;;;;;;10307665;28;20536;-76
2023/10/21 16:45:24;;;;;;;48.27;30.20;;;9.10;99.90;;;;;;10323543;28;20220;-77
2023/10/21 16:50:46;;;;;;;45.77;26.30;;;9.10;99.90;;;;;;10322519;28;20242;-77
2023/10/21 16:56:10;;;;;;;39.53;27.97;;;9.10;99.90;;;;;;10322695;28;20271;-78
2023/10/21 17:01:31;;;;;;;37.30;26.73;;;9.10;99.90;;;;;;10321057;28;20239;-77
2023/10/21 17:06:55;;;;;;;33.00;21.57;;;9.20;99.90;;;;;;10321366;28;20242;-77
2023/10/21 17:12:16;;;;;;;31.77;22.07;;;9.10;99.90;;;;;;10322622;28;20195;-77
2023/10/21 17:17:37;;;;;;;44.27;28.83;;;9.10;99.90;;;;;;10315267;28;20200;-77
2023/10/21 17:22:59;;;;;;;35.07;21.67;;;9.10;99.90;;;;;;10280969;29;20222;-76
2023/10/21 17:28:20;;;;;;;34.80;22.93;;;9.10;99.90;;;;;;10287261;28;20350;-77
2023/10/21 17:33:41;;;;;;;30.77;20.27;;;9.10;99.90;;;;;;10320948;28;20215;-77
2023/10/21 17:39:07;;;;;;;46.77;28.83;;;9.10;99.90;;;;;;10307163;28;20245;-77
2023/10/21 17:44:28;;;;;;;42.73;27.63;;;9.20;99.90;;;;;;10321296;28;20224;-77
2023/10/21 17:49:51;;;;;;;46.17;28.07;;;9.20;99.90;;;;;;10318979;28;20268;-77
2023/10/21 17:55:13;;;;;;;50.77;29.73;;;9.20;99.90;;;;;;10322076;28;20211;-79
2023/10/21 18:00:34;;;;;;;49.70;31.30;;;9.20;99.90;;;;;;10323351;28;20224;-78
2023/10/21 18:05:56;;;;;;;43.30;29.53;;;9.20;99.90;;;;;;10322278;28;20196;-76
2023/10/21 18:11:17;;;;;;;36.20;25.87;;;9.20;99.90;;;;;;10317960;28;20479;-77
2023/10/21 18:16:40;;;;;;;36.30;24.47;;;9.30;99.90;;;;;;10316066;28;20488;-77
2023/10/21 18:22:02;;;;;;;48.37;31.33;;;9.30;99.90;;;;;;10305928;28;20237;-76
2023/10/21 18:27:23;;;;;;;42.97;28.20;;;9.30;99.90;;;;;;10320152;28;20193;-76
2023/10/21 18:32:46;;;;;;;43.63;28.93;;;9.30;99.90;;;;;;10320107;28;20514;-78
2023/10/21 18:38:07;;;;;;;37.23;25.53;;;9.30;99.90;;;;;;10320596;28;20265;-77
2023/10/21 18:43:29;;;;;;;39.23;27.20;;;9.30;99.90;;;;;;10320212;28;20303;-76
2023/10/21 18:48:50;;;;;;;52.23;30.47;;;9.40;99.90;;;;;;10320094;28;20259;-76
2023/10/21 18:54:11;;;;;;;52.40;32.80;;;9.30;99.90;;;;;;10319589;28;20217;-77
2023/10/21 18:59:35;;;;;;;47.77;32.43;;;9.40;99.90;;;;;;10319161;28;20251;-77
2023/10/21 19:04:57;;;;;;;52.93;33.60;;;9.40;99.90;;;;;;10319370;28;20296;-78
2023/10/21 19:10:23;;;;;;;64.93;42.33;;;9.40;99.90;;;;;;10318347;28;20243;-77
2023/10/21 19:15:45;;;;;;;73.80;47.40;;;9.40;99.90;;;;;;10311965;28;20234;-77
2023/10/21 19:21:07;;;;;;;82.43;50.10;;;9.40;99.90;;;;;;10317498;28;20272;-78
2023/10/21 19:26:28;;;;;;;54.47;36.23;;;9.40;99.90;;;;;;10316539;28;20191;-77
2023/10/21 19:31:50;;;;;;;39.47;27.97;;;9.40;99.90;;;;;;10318676;28;20417;-76
2023/10/21 19:37:11;;;;;;;30.90;21.83;;;9.40;99.90;;;;;;10316496;28;20297;-77
2023/10/21 19:42:33;;;;;;;31.73;22.20;;;9.40;99.90;;;;;;10277607;28;20217;-76
2023/10/21 19:47:54;;;;;;;47.87;31.77;;;9.50;99.90;;;;;;10276947;28;20194;-77
2023/10/21 19:53:15;;;;;;;48.97;30.57;;;9.50;99.90;;;;;;10289215;28;20199;-77
2023/10/21 19:58:36;;;;;;;39.07;27.07;;;9.50;99.90;;;;;;10288521;28;20488;-77
2023/10/21 20:03:58;;;;;;;39.93;26.47;;;9.60;99.90;;;;;;10315240;28;20226;-77
2023/10/21 20:09:19;;;;;;;58.50;33.50;;;9.60;99.90;;;;;;10315373;28;20476;-77
2023/10/21 20:14:40;;;;;;;107.67;46.37;;;9.60;99.90;;;;;;10316717;28;20205;-78
2023/10/21 20:20:06;;;;;;;111.37;47.87;;;9.60;99.90;;;;;;10320426;28;20234;-77
2023/10/21 20:25:27;;;;;;;101.40;46.57;;;9.60;99.90;;;;;;10301278;28;20203;-77
2023/10/21 20:30:49;;;;;;;73.53;41.47;;;9.60;99.90;;;;;;10304582;28;20197;-77
2023/10/21 20:36:10;;;;;;;61.03;35.03;;;9.60;99.90;;;;;;10315704;28;20191;-77
2023/10/21 20:41:32;;;;;;;45.67;31.23;;;9.70;99.90;;;;;;10313587;28;20235;-77
2023/10/21 20:46:53;;;;;;;43.00;28.00;;;9.70;99.90;;;;;;10317116;28;20191;-78
2023/10/21 20:52:15;;;;;;;41.63;28.43;;;9.80;99.90;;;;;;10314630;28;20193;-77
2023/10/21 20:57:36;;;;;;;49.30;31.57;;;9.70;99.90;;;;;;10313887;28;20367;-77
2023/10/21 21:02:58;;;;;;;42.57;27.33;;;9.70;99.90;;;;;;10315770;28;20222;-79
2023/10/21 21:08:19;;;;;;;39.00;24.70;;;9.70;99.90;;;;;;10315639;28;20265;-77
2023/10/21 21:13:40;;;;;;;43.93;29.93;;;9.70;99.90;;;;;;10301071;28;20267;-78
2023/10/21 21:19:04;;;;;;;43.30;28.40;;;9.80;99.90;;;;;;10288684;28;20223;-78
2023/10/21 21:24:26;;;;;;;50.13;32.27;;;9.80;99.90;;;;;;10289535;28;20227;-77
2023/10/21 21:29:48;;;;;;;54.67;34.73;;;9.80;99.90;;;;;;10321991;28;20191;-77
2023/10/21 21:35:09;;;;;;;44.13;30.33;;;9.80;99.90;;;;;;10322040;28;20198;-77
2023/10/21 21:40:30;;;;;;;37.40;27.67;;;9.80;99.90;;;;;;10306489;28;20231;-77
2023/10/21 21:45:51;;;;;;;32.50;23.63;;;9.80;99.90;;;;;;10321543;28;20199;-77
2023/10/21 21:51:13;;;;;;;32.37;23.77;;;9.80;99.90;;;;;;10321147;28;20190;-77
2023/10/21 21:56:34;;;;;;;37.33;26.10;;;9.80;99.90;;;;;;10319085;28;20197;-77
2023/10/21 22:01:56;;;;;;;32.03;22.70;;;9.80;99.90;;;;;;10320020;28;20228;-77
2023/10/21 22:07:19;;;;;;;32.17;21.80;;;9.90;99.90;;;;;;10319144;28;20193;-77
2023/10/21 22:12:40;;;;;;;42.03;28.13;;;9.80;99.90;;;;;;10320038;28;20208;-77
2023/10/21 22:18:01;;;;;;;33.93;23.90;;;9.80;99.90;;;;;;10310423;28;20276;-77
2023/10/21 22:23:25;;;;;;;43.63;28.33;;;9.80;99.90;;;;;;10303962;28;20477;-78
2023/10/21 22:28:47;;;;;;;41.40;26.53;;;9.80;99.90;;;;;;10318557;28;20230;-77
2023/10/21 22:34:08;;;;;;;35.43;23.13;;;9.80;99.90;;;;;;10318642;28;20270;-78
2023/10/21 22:39:31;;;;;;;30.90;22.00;;;9.80;99.90;;;;;;10303343;28;20237;-77
2023/10/21 22:44:53;;;;;;;28.70;20.43;;;9.80;99.90;;;;;;10318237;28;20233;-77
2023/10/21 22:50:14;;;;;;;29.40;19.30;;;9.80;99.90;;;;;;10316704;28;20192;-78
2023/10/21 22:55:36;;;;;;;33.27;22.13;;;9.80;99.90;;;;;;10317881;28;20221;-78
2023/10/21 23:00:59;;;;;;;29.27;19.57;;;9.80;99.90;;;;;;10317507;28;20213;-78
2023/10/21 23:06:20;;;;;;;30.27;20.80;;;9.80;99.90;;;;;;10316955;28;20197;-77
2023/10/21 23:11:41;;;;;;;34.43;25.43;;;9.80;99.90;;;;;;10317072;28;20193;-78
2023/10/21 23:17:03;;;;;;;33.20;24.23;;;9.80;99.90;;;;;;10316619;28;20273;-78
2023/10/21 23:22:24;;;;;;;28.67;21.23;;;9.90;99.90;;;;;;10296136;28;20437;-77
2023/10/21 23:27:45;;;;;;;28.00;20.60;;;9.80;99.90;;;;;;10286964;28;20256;-77
2023/10/21 23:33:07;;;;;;;30.90;22.33;;;9.80;99.90;;;;;;10315904;28;20203;-77
2023/10/21 23:38:28;;;;;;;35.77;26.43;;;9.80;99.90;;;;;;10315759;28;20258;-77
2023/10/21 23:43:50;;;;;;;35.83;26.73;;;9.80;99.90;;;;;;10301576;28;20231;-77
2023/10/21 23:49:12;;;;;;;32.80;25.87;;;9.80;99.90;;;;;;10314174;28;20205;-78
2023/10/21 23:54:34;;;;;;;30.77;24.10;;;9.80;99.90;;;;;;10314102;28;20193;-77
2023/10/21 23:59:55;;;;;;;32.60;23.70;;;9.80;99.90;;;;;;10314585;28;20206;-78
